DLH5LB OMDB-EDDF
Flight info
| Callsign | DLH5LB |
|---|---|
| Flight time | N/A |
| Altitude | 37000 |
| Route | ANVIX L223 TARDI N629 BOTAM Y855 LAKLU/N0477F360 Q204 NALKI G652 TOKRA DCT ALROK/N0471F380 DCT BOSOB DCT ITRUX Y511 PMA Z712 WEJ L677 GESON Q777 ULOMO/N0461F400 Q777 RASDA DCT OTHON UN128 RDS UL609 MES DCT EVIVI DCT OKANA DCT NIVIS DCT BABIT DCT ARSIN DCT BUDEX DCT IPDUL DCT RAPET T170 VAGAB/N0405F240 T170 GAPLA T178 KERAX KERAX5A |
| Aircraft | A343/H-SDE2E3FGHIJ4J5M1RWXY/LB1D1 |
Departure
| Time | N/A |
|---|---|
| Airport | Dubai International Airport (OMDB) |
Arrival
| Time | 2026-04-14 07:21 |
|---|---|
| Airport | Frankfurt Main Airport (EDDF) |
| Time | Latitude | Longitude | Altitude | Speed | Heading |
|---|---|---|---|---|---|
| 2026-04-14 06:59 | 50.43617 | 11.25814 | 36272 ft | 471 kts | 287° |
| 2026-04-14 06:59 | 50.44693 | 11.20964 | 35675 ft | 471 kts | 287° |
| 2026-04-14 06:59 | 50.45766 | 11.16105 | 35081 ft | 471 kts | 287° |
| 2026-04-14 06:59 | 50.46833 | 11.11260 | 34573 ft | 469 kts | 287° |
| 2026-04-14 07:00 | 50.47897 | 11.06419 | 33943 ft | 469 kts | 286° |
| 2026-04-14 07:00 | 50.48958 | 11.01577 | 33185 ft | 470 kts | 286° |
| 2026-04-14 07:00 | 50.50021 | 10.96717 | 32370 ft | 472 kts | 287° |
| 2026-04-14 07:00 | 50.51086 | 10.91835 | 31570 ft | 473 kts | 287° |
| 2026-04-14 07:01 | 50.52139 | 10.87000 | 30779 ft | 475 kts | 287° |
| 2026-04-14 07:01 | 50.53209 | 10.82083 | 29948 ft | 477 kts | 287° |
| 2026-04-14 07:01 | 50.54298 | 10.77149 | 29086 ft | 477 kts | 288° |
| 2026-04-14 07:01 | 50.55405 | 10.72260 | 28471 ft | 472 kts | 288° |
| 2026-04-14 07:02 | 50.56506 | 10.67446 | 27933 ft | 465 kts | 288° |
| 2026-04-14 07:02 | 50.57594 | 10.62685 | 27343 ft | 460 kts | 288° |
| 2026-04-14 07:02 | 50.58667 | 10.57968 | 26732 ft | 455 kts | 288° |
| 2026-04-14 07:02 | 50.59730 | 10.53306 | 26153 ft | 450 kts | 288° |
| 2026-04-14 07:03 | 50.60775 | 10.48689 | 25598 ft | 445 kts | 288° |
| 2026-04-14 07:03 | 50.61791 | 10.44181 | 25052 ft | 441 kts | 288° |
| 2026-04-14 07:03 | 50.62809 | 10.39650 | 24493 ft | 436 kts | 288° |
| 2026-04-14 07:03 | 50.63778 | 10.35154 | 23956 ft | 431 kts | 284° |
| 2026-04-14 07:04 | 50.64290 | 10.30544 | 23325 ft | 426 kts | 272° |
| 2026-04-14 07:04 | 50.64088 | 10.25920 | 22610 ft | 422 kts | 257° |
| 2026-04-14 07:04 | 50.63152 | 10.21581 | 21954 ft | 417 kts | 246° |
| 2026-04-14 07:04 | 50.61918 | 10.17471 | 21341 ft | 413 kts | 242° |
| 2026-04-14 07:05 | 50.60565 | 10.13506 | 20726 ft | 409 kts | 240° |
| 2026-04-14 07:05 | 50.59190 | 10.09684 | 20161 ft | 405 kts | 239° |
| 2026-04-14 07:05 | 50.57796 | 10.05853 | 19591 ft | 401 kts | 239° |
| 2026-04-14 07:05 | 50.56423 | 10.02059 | 19032 ft | 398 kts | 239° |
| 2026-04-14 07:06 | 50.55078 | 9.98274 | 18476 ft | 395 kts | 240° |
| 2026-04-14 07:06 | 50.54002 | 9.94313 | 17836 ft | 393 kts | 248° |
| 2026-04-14 07:06 | 50.53130 | 9.90257 | 17228 ft | 390 kts | 251° |
| 2026-04-14 07:06 | 50.52351 | 9.86192 | 16621 ft | 387 kts | 252° |
| 2026-04-14 07:07 | 50.51622 | 9.82132 | 16027 ft | 384 kts | 252° |
| 2026-04-14 07:07 | 50.50915 | 9.78102 | 15458 ft | 381 kts | 253° |
| 2026-04-14 07:07 | 50.50225 | 9.74164 | 14927 ft | 377 kts | 253° |
| 2026-04-14 07:07 | 50.49539 | 9.70212 | 14386 ft | 374 kts | 253° |
| 2026-04-14 07:08 | 50.48871 | 9.66289 | 13837 ft | 371 kts | 253° |
| 2026-04-14 07:08 | 50.48163 | 9.62419 | 13227 ft | 367 kts | 248° |
| 2026-04-14 07:08 | 50.46907 | 9.58979 | 12569 ft | 364 kts | 229° |
| 2026-04-14 07:08 | 50.44939 | 9.56527 | 11959 ft | 362 kts | 209° |
| 2026-04-14 07:09 | 50.42683 | 9.54841 | 11590 ft | 354 kts | 204° |
| 2026-04-14 07:09 | 50.40461 | 9.53330 | 11395 ft | 342 kts | 204° |
| 2026-04-14 07:09 | 50.38340 | 9.51893 | 11217 ft | 331 kts | 204° |
| 2026-04-14 07:09 | 50.36264 | 9.50482 | 11058 ft | 320 kts | 204° |
| 2026-04-14 07:10 | 50.34258 | 9.49117 | 10896 ft | 309 kts | 204° |
| 2026-04-14 07:10 | 50.32318 | 9.47795 | 10768 ft | 300 kts | 204° |
| 2026-04-14 07:10 | 50.30434 | 9.46512 | 10627 ft | 291 kts | 205° |
| 2026-04-14 07:10 | 50.28601 | 9.45262 | 10417 ft | 285 kts | 205° |
| 2026-04-14 07:11 | 50.26792 | 9.44030 | 10151 ft | 282 kts | 205° |
| 2026-04-14 07:11 | 50.25010 | 9.42758 | 9833 ft | 281 kts | 210° |
| 2026-04-14 07:11 | 50.23501 | 9.40858 | 9437 ft | 279 kts | 232° |
| 2026-04-14 07:11 | 50.22590 | 9.38209 | 9103 ft | 277 kts | 249° |
| 2026-04-14 07:12 | 50.21942 | 9.35428 | 8778 ft | 275 kts | 251° |
| 2026-04-14 07:12 | 50.21313 | 9.32610 | 8462 ft | 274 kts | 251° |
| 2026-04-14 07:12 | 50.20687 | 9.29813 | 8149 ft | 273 kts | 251° |
| 2026-04-14 07:12 | 50.20052 | 9.27028 | 7797 ft | 272 kts | 251° |
| 2026-04-14 07:13 | 50.19413 | 9.24249 | 7481 ft | 271 kts | 251° |
| 2026-04-14 07:13 | 50.18776 | 9.21485 | 7145 ft | 271 kts | 251° |
| 2026-04-14 07:13 | 50.18136 | 9.18719 | 6804 ft | 270 kts | 252° |
| 2026-04-14 07:13 | 50.17496 | 9.15961 | 6448 ft | 271 kts | 252° |
| 2026-04-14 07:14 | 50.16855 | 9.13202 | 6084 ft | 270 kts | 252° |
| 2026-04-14 07:14 | 50.16217 | 9.10449 | 5738 ft | 270 kts | 252° |
| 2026-04-14 07:14 | 50.15586 | 9.07734 | 5393 ft | 270 kts | 252° |
| 2026-04-14 07:14 | 50.14943 | 9.04985 | 5079 ft | 270 kts | 252° |
| 2026-04-14 07:15 | 50.14302 | 9.02245 | 4742 ft | 269 kts | 252° |
| 2026-04-14 07:15 | 50.13676 | 8.99542 | 4576 ft | 261 kts | 252° |
| 2026-04-14 07:15 | 50.13072 | 8.96933 | 4447 ft | 251 kts | 253° |
| 2026-04-14 07:15 | 50.12495 | 8.94417 | 4340 ft | 242 kts | 252° |
| 2026-04-14 07:16 | 50.11922 | 8.91996 | 4225 ft | 234 kts | 252° |
| 2026-04-14 07:16 | 50.11367 | 8.89650 | 4075 ft | 228 kts | 253° |
| 2026-04-14 07:16 | 50.10839 | 8.87405 | 4011 ft | 219 kts | 253° |
| 2026-04-14 07:16 | 50.10331 | 8.85243 | 3985 ft | 206 kts | 253° |
| 2026-04-14 07:17 | 50.09844 | 8.83172 | 3814 ft | 203 kts | 253° |
| 2026-04-14 07:17 | 50.09352 | 8.81101 | 3531 ft | 206 kts | 253° |
| 2026-04-14 07:17 | 50.08850 | 8.78995 | 3218 ft | 209 kts | 253° |
| 2026-04-14 07:17 | 50.08346 | 8.76880 | 2949 ft | 206 kts | 253° |
| 2026-04-14 07:18 | 50.07861 | 8.74847 | 2652 ft | 194 kts | 254° |
| 2026-04-14 07:18 | 50.07410 | 8.72952 | 2396 ft | 180 kts | 253° |
| 2026-04-14 07:18 | 50.06991 | 8.71193 | 2152 ft | 165 kts | 254° |
| 2026-04-14 07:18 | 50.06613 | 8.69604 | 1929 ft | 150 kts | 254° |
| 2026-04-14 07:19 | 50.06266 | 8.68147 | 1736 ft | 137 kts | 254° |
| 2026-04-14 07:19 | 50.05948 | 8.66805 | 1528 ft | 133 kts | 253° |
| 2026-04-14 07:19 | 50.05626 | 8.65453 | 1351 ft | 133 kts | 253° |
| 2026-04-14 07:19 | 50.05306 | 8.64109 | 1169 ft | 132 kts | 253° |
| 2026-04-14 07:20 | 50.04990 | 8.62778 | 983 ft | 130 kts | 252° |
| 2026-04-14 07:20 | 50.04679 | 8.61458 | 783 ft | 130 kts | 253° |
| 2026-04-14 07:20 | 50.04362 | 8.60153 | 624 ft | 129 kts | 251° |
| 2026-04-14 07:20 | 50.04051 | 8.58850 | 428 ft | 129 kts | 254° |
| 2026-04-14 07:21 | 50.03752 | 8.57592 | 365 ft | 109 kts | 250° |
| 2026-04-14 07:21 | 50.03550 | 8.56744 | 355 ft | 58 kts | 250° |
| 2026-04-14 07:21 | 50.03448 | 8.56293 | 364 ft | 26 kts | 256° |
| 2026-04-14 07:21 | 50.03441 | 8.56028 | 357 ft | 15 kts | 277° |
| 2026-04-14 07:22 | 50.03458 | 8.55855 | 353 ft | 17 kts | 280° |
| 2026-04-14 07:22 | 50.03477 | 8.55685 | 354 ft | 9 kts | 279° |
| 2026-04-14 07:22 | 50.03487 | 8.55591 | 349 ft | 9 kts | 279° |
| 2026-04-14 07:22 | 50.03490 | 8.55488 | 353 ft | 10 kts | 264° |
| 2026-04-14 07:23 | 50.03463 | 8.55351 | 351 ft | 15 kts | 249° |
| 2026-04-14 07:23 | 50.03423 | 8.55188 | 352 ft | 17 kts | 249° |
| 2026-04-14 07:23 | 50.03380 | 8.55005 | 351 ft | 19 kts | 250° |
| 2026-04-14 07:23 | 50.03331 | 8.54800 | 353 ft | 22 kts | 250° |
| 2026-04-14 07:24 | 50.03283 | 8.54598 | 350 ft | 16 kts | 249° |
| 2026-04-14 07:24 | 50.03276 | 8.54505 | 352 ft | 8 kts | 290° |
| 2026-04-14 07:24 | 50.03339 | 8.54461 | 353 ft | 11 kts | 345° |
| 2026-04-14 07:24 | 50.03420 | 8.54418 | 348 ft | 12 kts | 340° |
| 2026-04-14 07:25 | 50.03495 | 8.54376 | 356 ft | 12 kts | 340° |
| 2026-04-14 07:25 | 50.03579 | 8.54329 | 347 ft | 13 kts | 340° |
| 2026-04-14 07:25 | 50.03637 | 8.54309 | 356 ft | 5 kts | 17° |
| 2026-04-14 07:25 | 50.03671 | 8.54374 | 354 ft | 11 kts | 66° |
| 2026-04-14 07:26 | 50.03706 | 8.54519 | 351 ft | 16 kts | 69° |
| 2026-04-14 07:26 | 50.03746 | 8.54680 | 358 ft | 16 kts | 69° |
| 2026-04-14 07:26 | 50.03784 | 8.54843 | 356 ft | 16 kts | 70° |
| 2026-04-14 07:26 | 50.03821 | 8.54999 | 359 ft | 15 kts | 69° |
| 2026-04-14 07:27 | 50.03864 | 8.55180 | 359 ft | 20 kts | 69° |
| 2026-04-14 07:27 | 50.03915 | 8.55394 | 358 ft | 21 kts | 70° |
| 2026-04-14 07:27 | 50.03965 | 8.55603 | 358 ft | 21 kts | 69° |
| 2026-04-14 07:27 | 50.04014 | 8.55805 | 361 ft | 19 kts | 70° |
| 2026-04-14 07:28 | 50.04058 | 8.55990 | 359 ft | 18 kts | 70° |
| 2026-04-14 07:28 | 50.04101 | 8.56171 | 363 ft | 17 kts | 69° |
| 2026-04-14 07:28 | 50.04141 | 8.56339 | 365 ft | 16 kts | 69° |
| 2026-04-14 07:28 | 50.04176 | 8.56483 | 365 ft | 14 kts | 70° |
| 2026-04-14 07:29 | 50.04211 | 8.56629 | 365 ft | 15 kts | 69° |
| 2026-04-14 07:29 | 50.04246 | 8.56777 | 369 ft | 14 kts | 69° |
| 2026-04-14 07:29 | 50.04282 | 8.56928 | 368 ft | 16 kts | 70° |
| 2026-04-14 07:29 | 50.04321 | 8.57093 | 371 ft | 16 kts | 69° |
| 2026-04-14 07:30 | 50.04363 | 8.57266 | 369 ft | 18 kts | 70° |
| 2026-04-14 07:30 | 50.04403 | 8.57433 | 371 ft | 15 kts | 69° |
| 2026-04-14 07:30 | 50.04457 | 8.57551 | 374 ft | 12 kts | 31° |
| 2026-04-14 07:30 | 50.04520 | 8.57543 | 369 ft | 9 kts | 336° |
| 2026-04-14 07:31 | 50.04577 | 8.57505 | 367 ft | 9 kts | 340° |
| 2026-04-14 07:31 | 50.04635 | 8.57459 | 367 ft | 10 kts | 321° |
| 2026-04-14 07:31 | 50.04678 | 8.57396 | 369 ft | 7 kts | 316° |
| 2026-04-14 07:31 | 50.04701 | 8.57361 | 366 ft | 4 kts | 315° |
| 2026-04-14 07:32 | 50.04706 | 8.57346 | 369 ft | 1 kts | 295° |
| 2026-04-14 07:32 | 50.04707 | 8.57335 | 369 ft | 1 kts | 283° |
| 2026-04-14 07:32 | 50.04708 | 8.57318 | 363 ft | 2 kts | 276° |
| 2026-04-14 07:32 | 50.04710 | 8.57289 | 364 ft | 1 kts | 277° |
| 2026-04-14 07:33 | 50.04711 | 8.57282 | 362 ft | 0 kts | 277° |